Time;durP1;ratioP1;P1;durP2;ratioP2;P2;SDS_P1;SDS_P2;PMS_P1;PMS_P2;Temp;Humidity;BMP_temperature;BMP_pressure;BME280_temperature;BME280_humidity;BME280_pressure;Samples;Min_cycle;Max_cycle;Signal;HPM_P1;HPM_P2
2022/10/07 00:00:36;;;;;;;;;10.25;7.00;;;;;20.97;41.24;102296.75;5056900;28;45398;-57
2022/10/07 00:03:02;;;;;;;;;9.50;7.50;;;;;20.96;41.27;102293.25;5056488;28;46296;-56
2022/10/07 00:05:27;;;;;;;;;8.25;8.25;;;;;20.96;41.10;102295.88;5038213;28;45292;-56
2022/10/07 00:07:53;;;;;;;;;8.50;6.75;;;;;20.96;41.09;102290.63;5055825;28;45240;-56
2022/10/07 00:10:19;;;;;;;;;3.00;3.00;;;;;20.96;41.19;102290.63;5056556;28;45600;-56
2022/10/07 00:12:44;;;;;;;;;10.50;8.00;;;;;20.97;40.94;102294.09;5055639;28;45307;-56
2022/10/07 00:15:09;;;;;;;;;8.50;8.00;;;;;20.97;40.92;102288.84;5055933;28;45379;-56
2022/10/07 00:17:35;;;;;;;;;9.00;9.00;;;;;20.97;41.47;102288.84;5056413;28;45230;-56
2022/10/07 00:20:01;;;;;;;;;8.00;7.50;;;;;20.96;41.58;102285.34;5055952;28;45699;-57
2022/10/07 00:22:26;;;;;;;;;8.25;8.25;;;;;20.96;41.20;102280.06;5055892;28;45357;-57
2022/10/07 00:24:51;;;;;;;;;6.75;6.75;;;;;20.95;41.10;102283.63;5055590;28;47382;-56
2022/10/07 00:27:16;;;;;;;;;7.25;6.75;;;;;20.96;41.16;102276.56;5056142;28;45358;-56
2022/10/07 00:29:42;;;;;;;;;7.00;7.00;;;;;20.96;40.89;102276.56;5055635;28;45305;-57
2022/10/07 00:32:07;;;;;;;;;10.00;9.00;;;;;20.96;41.23;102280.06;5055153;28;60619;-57
2022/10/07 00:34:32;;;;;;;;;10.75;8.00;;;;;20.94;40.94;102274.00;5055828;28;46551;-57
2022/10/07 00:36:58;;;;;;;;;7.00;6.75;;;;;20.96;41.25;102274.81;5055555;28;45704;-57
2022/10/07 00:39:23;;;;;;;;;9.00;7.00;;;;;20.95;41.33;102272.19;5055717;28;45318;-57
2022/10/07 00:41:51;;;;;;;;;7.67;7.00;;;;;20.96;41.43;102276.56;5055064;28;53651;-58
2022/10/07 00:44:32;;;;;;;;;9.00;8.00;;;;;20.95;41.36;102264.28;5055532;28;45182;-57
2022/10/07 00:47:19;;;;;;;;;9.00;7.50;;;;;20.94;41.49;102263.44;5037491;28;45355;-57
2022/10/07 00:49:54;;;;;;;;;8.00;6.00;;;;;20.94;41.24;102262.59;5041375;28;45609;-56
2022/10/07 00:52:25;;;;;;;;;11.00;8.00;;;;;20.93;41.48;102256.44;5055487;28;46521;-58
2022/10/07 00:54:53;;;;;;;;;7.75;7.00;;;;;20.93;41.36;102256.44;5055374;28;45774;-57
2022/10/07 00:57:24;;;;;;;;;9.00;8.00;;;;;20.93;41.47;102253.81;5055589;28;45384;-56
2022/10/07 00:59:54;;;;;;;;;10.25;7.00;;;;;20.92;41.16;102254.72;5055213;28;45328;-58
2022/10/07 01:02:24;;;;;;;;;6.00;6.00;;;;;20.93;41.47;102248.53;5056816;28;45430;-57
2022/10/07 01:04:51;;;;;;;;;8.00;8.00;;;;;20.93;41.23;102251.19;5058805;28;45839;-57
2022/10/07 01:07:19;;;;;;;;;8.50;7.50;;;;;20.94;41.35;102255.53;5059333;28;45268;-56
2022/10/07 01:09:47;;;;;;;;;7.00;5.75;;;;;20.94;41.67;102254.69;5059012;28;45384;-61
2022/10/07 01:12:28;;;;;;;;;9.50;8.00;;;;;20.93;41.47;102245.91;5058877;28;46168;-57
2022/10/07 01:15:38;;;;;;;;;7.00;7.00;;;;;20.93;41.44;102248.53;5058589;28;45354;-56
2022/10/07 01:18:06;;;;;;;;;7.00;7.00;;;;;20.94;41.14;102236.25;5050521;28;45363;-56
2022/10/07 01:20:47;;;;;;;;;8.75;7.50;;;;;20.92;41.65;102238.06;5041311;28;45311;-55
2022/10/07 01:23:34;;;;;;;;;8.25;7.75;;;;;20.92;41.64;102232.81;5058630;28;45542;-56
2022/10/07 01:26:27;;;;;;;;;6.00;6.00;;;;;20.92;41.62;102227.53;5058514;28;45362;-56
2022/10/07 01:29:08;;;;;;;;;8.50;7.50;;;;;20.92;41.50;102230.16;5040464;28;45340;-56
2022/10/07 01:31:41;;;;;;;;;10.50;7.75;;;;;20.92;41.38;102230.16;5059310;28;45335;-56
2022/10/07 01:34:09;;;;;;;;;9.00;9.00;;;;;20.92;41.55;102233.66;5058585;28;45539;-56
2022/10/07 01:36:36;;;;;;;;;7.50;7.50;;;;;20.92;41.51;102223.09;5058766;28;45843;-57
2022/10/07 01:39:10;;;;;;;;;8.75;8.25;;;;;20.91;41.35;102226.66;5058768;28;45228;-57
2022/10/07 01:41:38;;;;;;;;;11.25;8.75;;;;;20.91;41.38;102218.75;5059013;28;45319;-55
2022/10/07 01:44:03;;;;;;;;;8.75;8.25;;;;;20.92;41.83;102222.25;5058655;28;46133;-57
2022/10/07 01:46:29;;;;;;;;;8.25;7.25;;;;;20.91;41.55;102215.25;5058426;28;45422;-56
2022/10/07 01:48:55;;;;;;;;;5.50;5.25;;;;;20.91;41.51;102212.63;5058288;28;45401;-56
2022/10/07 01:51:27;;;;;;;;;10.00;8.25;;;;;20.89;41.43;102202.13;5058570;28;45490;-56
2022/10/07 01:54:11;;;;;;;;;8.50;7.75;;;;;20.90;41.65;102198.56;5058003;28;46160;-57
2022/10/07 01:56:36;;;;;;;;;7.75;7.25;;;;;20.91;41.63;102200.28;5058647;28;45756;-57
2022/10/07 01:59:20;;;;;;;;;9.50;8.00;;;;;20.90;41.75;102190.66;5040226;28;45836;-56
2022/10/07 02:02:03;;;;;;;;;7.75;7.25;;;;;20.90;41.44;102190.66;5040126;28;45575;-55
2022/10/07 02:05:12;;;;;;;;;7.50;6.75;;;;;20.89;41.79;102181.03;5058043;28;46893;-57
2022/10/07 02:08:14;;;;;;;;;8.00;7.00;;;;;20.89;41.77;102181.03;4959808;28;46014;-57
2022/10/07 02:10:58;;;;;;;;;11.00;7.50;;;;;20.88;41.46;102176.72;4959876;28;45509;-57
2022/10/07 02:13:35;;;;;;;;;8.75;7.00;;;;;20.89;41.38;102174.91;5046520;28;45446;-57
2022/10/07 02:16:26;;;;;;;;;9.00;8.00;;;;;20.88;41.62;102171.44;5057631;28;46525;-57
2022/10/07 02:18:52;;;;;;;;;10.00;8.00;;;;;20.88;41.26;102162.66;5039545;28;45838;-56
2022/10/07 02:21:25;;;;;;;;;11.00;8.75;;;;;20.88;41.60;102160.91;5057961;28;45343;-56
2022/10/07 02:23:53;;;;;;;;;8.50;8.50;;;;;20.88;41.43;102170.56;5057706;28;45520;-55
2022/10/07 02:26:21;;;;;;;;;9.00;8.50;;;;;20.88;41.73;102160.03;5057707;28;46429;-55
2022/10/07 02:28:51;;;;;;;;;11.50;10.00;;;;;20.88;41.67;102152.13;5057389;28;45314;-56
2022/10/07 02:31:22;;;;;;;;;12.50;10.00;;;;;20.88;41.50;102145.09;5057971;28;45437;-55
2022/10/07 02:33:52;;;;;;;;;9.50;6.50;;;;;20.88;41.23;102144.22;5057651;28;45273;-56
2022/10/07 02:36:24;;;;;;;;;8.50;8.50;;;;;20.89;41.80;102144.13;5057509;28;47601;-57
2022/10/07 02:38:53;;;;;;;;;9.50;8.25;;;;;20.87;41.45;102135.47;5057352;28;45365;-57
2022/10/07 02:41:43;;;;;;;;;8.00;7.50;;;;;20.89;41.78;102138.88;5057653;28;45411;-57
2022/10/07 02:44:24;;;;;;;;;12.50;10.00;;;;;20.88;41.96;102137.19;5057584;28;45306;-57
2022/10/07 02:47:02;;;;;;;;;10.25;10.00;;;;;20.88;41.82;102137.19;5057241;28;45682;-57
2022/10/07 02:49:29;;;;;;;;;9.00;9.00;;;;;20.87;41.88;102135.47;5057468;28;45284;-57
2022/10/07 02:52:01;;;;;;;;;8.50;8.00;;;;;20.88;41.84;102125.75;5057353;28;45431;-56
2022/10/07 02:54:33;;;;;;;;;8.25;7.25;;;;;20.87;41.46;102119.66;5057579;28;45729;-56
2022/10/07 02:57:00;;;;;;;;;9.00;9.00;;;;;20.87;41.58;102130.19;5039079;28;46456;-57
2022/10/07 02:59:27;;;;;;;;;8.25;8.00;;;;;20.87;41.73;102122.28;5057140;28;45407;-57
2022/10/07 03:01:57;;;;;;;;;6.00;6.00;;;;;20.86;41.75;102117.91;5057150;28;45252;-56
2022/10/07 03:04:23;;;;;;;;;9.00;8.00;;;;;20.86;41.51;102117.91;5057472;28;45433;-56
2022/10/07 03:06:49;;;;;;;;;9.75;9.00;;;;;20.86;41.44;102110.00;5038704;28;47976;-56
2022/10/07 03:09:15;;;;;;;;;9.00;9.00;;;;;20.86;41.33;102115.28;5056884;28;45876;-56
2022/10/07 03:11:40;;;;;;;;;9.00;8.00;;;;;20.86;41.80;102110.00;5056945;28;45413;-57
2022/10/07 03:14:06;;;;;;;;;11.00;8.75;;;;;20.86;41.55;102112.66;5057596;28;45245;-56
2022/10/07 03:16:31;;;;;;;;;9.00;8.00;;;;;20.86;41.55;102107.38;5056909;28;46305;-56
2022/10/07 03:18:57;;;;;;;;;8.75;8.75;;;;;20.86;41.73;102096.84;5056802;28;45687;-56
2022/10/07 03:21:24;;;;;;;;;11.00;7.50;;;;;20.85;42.13;102110.94;5057064;28;45344;-57
2022/10/07 03:23:53;;;;;;;;;8.25;6.75;;;;;20.85;41.61;102106.50;5056856;28;45270;-56
2022/10/07 03:26:20;;;;;;;;;9.75;8.50;;;;;20.84;41.60;102104.78;5056622;28;45467;-56
2022/10/07 03:28:45;;;;;;;;;7.50;7.50;;;;;20.85;42.02;102101.22;5056571;28;45331;-57
2022/10/07 03:31:13;;;;;;;;;11.00;10.25;;;;;20.84;41.83;102099.50;5057000;28;45432;-57
2022/10/07 03:33:38;;;;;;;;;8.25;8.00;;;;;20.85;41.86;102095.13;5056754;28;45414;-57
2022/10/07 03:36:04;;;;;;;;;9.00;7.00;;;;;20.85;41.96;102095.13;5038717;28;48430;-56
2022/10/07 03:38:30;;;;;;;;;8.75;8.00;;;;;20.84;41.80;102088.97;5056720;28;45350;-56
2022/10/07 03:40:56;;;;;;;;;5.50;5.25;;;;;20.83;41.50;102096.94;5056476;28;45357;-56
2022/10/07 03:43:22;;;;;;;;;8.25;6.75;;;;;20.84;41.95;102088.97;5056974;28;45548;-57
2022/10/07 03:45:51;;;;;;;;;11.00;10.00;;;;;20.84;41.79;102091.59;5055242;28;46369;-56
2022/10/07 03:48:17;;;;;;;;;9.25;9.00;;;;;20.85;41.63;102095.13;5056707;28;45900;-57
2022/10/07 03:50:49;;;;;;;;;8.00;8.00;;;;;20.85;41.79;102097.75;5056352;28;45212;-56
2022/10/07 03:53:15;;;;;;;;;10.25;7.75;;;;;20.84;41.46;102098.66;5056685;28;45565;-56
2022/10/07 03:55:40;;;;;;;;;8.25;8.25;;;;;20.84;41.81;102099.50;5056016;28;46607;-57
2022/10/07 03:58:06;;;;;;;;;7.00;6.00;;;;;20.83;41.52;102091.69;5056549;28;45277;-56
2022/10/07 04:00:31;;;;;;;;;8.75;8.75;;;;;20.83;41.79;102087.28;5056589;28;45252;-57
2022/10/07 04:02:56;;;;;;;;;9.50;9.25;;;;;20.84;41.87;102093.41;5056324;28;45266;-58
2022/10/07 04:05:22;;;;;;;;;8.50;8.50;;;;;20.81;42.01;102083.84;5055737;28;52044;-56
2022/10/07 04:07:49;;;;;;;;;9.75;8.00;;;;;20.83;41.63;102086.41;5055968;28;45229;-55
2022/10/07 04:10:16;;;;;;;;;9.25;8.25;;;;;20.83;41.62;102087.28;5038024;28;45328;-56
2022/10/07 04:12:43;;;;;;;;;9.25;9.25;;;;;20.82;41.37;102082.94;5056239;28;45414;-56
2022/10/07 04:15:12;;;;;;;;;8.75;8.75;;;;;20.84;41.61;102082.84;5056017;28;45327;-56
2022/10/07 04:17:38;;;;;;;;;10.50;9.00;;;;;20.83;42.02;102081.13;5055914;28;45241;-57
2022/10/07 04:20:04;;;;;;;;;8.00;8.00;;;;;20.82;41.63;102079.41;5038645;28;45383;-56
2022/10/07 04:22:30;;;;;;;;;9.50;7.50;;;;;20.82;41.68;102079.41;5056275;28;45593;-57
2022/10/07 04:27:39;;;;;;;;;10.25;8.00;;;;;20.81;41.74;102075.06;5055630;28;45236;-57
2022/10/07 04:30:05;;;;;;;;;8.00;8.00;;;;;20.81;41.42;102072.41;5056295;28;45414;-57
2022/10/07 04:32:30;;;;;;;;;9.50;8.00;;;;;20.81;41.58;102072.41;5056058;28;45548;-57
2022/10/07 04:34:56;;;;;;;;;9.00;7.75;;;;;20.81;41.87;102072.41;5054335;28;46919;-57
2022/10/07 04:37:21;;;;;;;;;10.25;9.25;;;;;20.81;41.61;102072.41;5055165;28;45437;-57
2022/10/07 04:39:46;;;;;;;;;10.25;8.25;;;;;20.81;42.13;102075.06;5055523;28;45428;-55
2022/10/07 04:43:17;;;;;;;;;13.00;11.75;;;;;20.80;42.10;102073.34;5055856;28;45294;-57
2022/10/07 04:44:57;;;;;;;;;10.75;9.25;;;;;20.81;41.68;102073.28;5055284;28;45376;-56
2022/10/07 04:47:22;;;;;;;;;12.25;9.00;;;;;20.81;41.67;102064.50;5055582;28;46037;-58
2022/10/07 04:49:47;;;;;;;;;9.00;9.00;;;;;20.80;41.53;102066.31;5037504;28;45434;-56
2022/10/07 04:52:13;;;;;;;;;10.75;9.25;;;;;20.80;41.94;102060.16;5055980;28;45308;-56
2022/10/07 04:54:39;;;;;;;;;8.50;7.50;;;;;20.80;41.81;102060.16;5055117;28;46264;-58
2022/10/07 04:57:05;;;;;;;;;10.25;9.25;;;;;20.79;41.63;102055.81;5055928;28;45414;-58
2022/10/07 04:59:30;;;;;;;;;10.00;9.00;;;;;20.79;41.65;102047.91;5037382;28;45340;-57
2022/10/07 05:01:56;;;;;;;;;9.75;9.75;;;;;20.80;41.59;102060.16;5037483;28;45614;-56
2022/10/07 05:04:21;;;;;;;;;12.75;9.75;;;;;20.80;41.52;102049.63;5055533;28;45328;-56
2022/10/07 05:06:47;;;;;;;;;9.25;8.00;;;;;20.80;41.96;102058.41;5055131;28;45232;-57
2022/10/07 05:09:12;;;;;;;;;9.50;8.25;;;;;20.80;41.95;102044.34;5055332;28;45257;-58
2022/10/07 05:11:37;;;;;;;;;11.25;9.00;;;;;20.80;41.79;102046.97;5036912;28;45666;-56
2022/10/07 05:14:03;;;;;;;;;9.00;9.00;;;;;20.79;41.81;102047.91;5055274;28;46723;-57
2022/10/07 05:16:28;;;;;;;;;11.50;9.25;;;;;20.80;41.76;102060.16;5055362;28;45264;-59
2022/10/07 05:18:54;;;;;;;;;9.00;9.00;;;;;20.78;41.68;102046.22;5053890;28;45681;-57
2022/10/07 05:21:20;;;;;;;;;9.50;9.00;;;;;20.79;41.75;102064.59;5037373;28;45590;-59
2022/10/07 05:23:45;;;;;;;;;11.00;10.00;;;;;20.79;41.90;102058.44;5054927;28;45446;-58
2022/10/07 05:26:13;;;;;;;;;10.25;9.00;;;;;20.78;42.18;102046.22;5037072;28;45346;-56
2022/10/07 05:28:39;;;;;;;;;12.50;11.00;;;;;20.79;41.83;102055.81;5054887;28;45455;-57
2022/10/07 05:31:10;;;;;;;;;10.50;10.50;;;;;20.79;41.83;102054.03;5055588;28;45314;-56
2022/10/07 05:33:37;;;;;;;;;9.25;7.25;;;;;20.79;41.85;102058.44;5055293;28;45444;-57
2022/10/07 05:36:03;;;;;;;;;8.75;7.75;;;;;20.77;41.73;102053.25;5055217;28;45348;-58
2022/10/07 05:38:29;;;;;;;;;10.75;10.25;;;;;20.77;41.65;102049.75;5055139;28;45433;-56
2022/10/07 05:40:59;;;;;;;;;11.00;10.00;;;;;20.77;41.95;102044.50;5055049;28;45552;-56
2022/10/07 05:43:26;;;;;;;;;11.75;11.00;;;;;20.76;41.90;102040.97;5054774;28;47232;-56
2022/10/07 05:46:04;;;;;;;;;11.75;10.25;;;;;20.75;42.16;102052.44;5054815;28;46046;-57
2022/10/07 05:48:31;;;;;;;;;14.25;13.25;;;;;20.74;42.01;102045.44;5037620;28;45570;-57
2022/10/07 05:50:57;;;;;;;;;12.50;10.00;;;;;20.74;42.00;102048.06;5057187;28;46081;-57
2022/10/07 05:53:24;;;;;;;;;10.75;10.75;;;;;20.73;41.93;102051.59;5058296;28;46591;-57
2022/10/07 05:55:52;;;;;;;;;10.25;10.25;;;;;20.74;41.85;102047.19;5057883;28;45304;-58
2022/10/07 05:58:18;;;;;;;;;12.00;11.00;;;;;20.73;41.86;102048.09;5058269;28;45422;-58
2022/10/07 06:00:56;;;;;;;;;12.00;11.25;;;;;20.73;42.12;102045.47;5058293;28;45308;-56
2022/10/07 06:03:24;;;;;;;;;13.50;10.50;;;;;20.74;42.00;102044.56;5040165;28;45826;-57
2022/10/07 06:05:50;;;;;;;;;15.50;11.00;;;;;20.73;41.92;102043.69;5057780;28;45456;-58
2022/10/07 06:08:18;;;;;;;;;12.25;11.00;;;;;20.73;42.16;102048.09;5058309;28;45517;-56
2022/10/07 06:13:27;;;;;;;;;12.25;10.25;;;;;20.73;41.86;102042.84;5057850;28;45459;-56
2022/10/07 06:15:52;;;;;;;;;10.00;10.00;;;;;20.73;41.75;102046.31;5057483;28;45422;-56
2022/10/07 06:18:18;;;;;;;;;10.00;10.00;;;;;20.75;41.57;102047.16;5039814;28;45300;-57
2022/10/07 06:20:52;;;;;;;;;15.00;11.25;;;;;20.73;41.87;102032.31;5057900;28;45343;-56
2022/10/07 06:23:17;;;;;;;;;12.00;11.00;;;;;20.74;42.06;102039.28;5057682;28;46517;-56
2022/10/07 06:25:51;;;;;;;;;12.00;10.75;;;;;20.73;42.14;102040.19;5057478;28;45336;-57
2022/10/07 06:28:16;;;;;;;;;15.25;11.25;;;;;20.74;41.61;102044.56;5057965;28;45370;-57
2022/10/07 06:30:41;;;;;;;;;10.50;9.75;;;;;20.74;41.92;102034.91;5057835;28;45418;-56
2022/10/07 06:33:07;;;;;;;;;14.00;13.00;;;;;20.74;42.15;102034.03;5057540;28;45356;-57
2022/10/07 06:35:32;;;;;;;;;11.50;10.25;;;;;20.74;42.04;102034.91;5057756;28;45463;-57
2022/10/07 06:37:58;;;;;;;;;10.25;10.25;;;;;20.73;42.07;102037.56;5057474;28;45311;-56
2022/10/07 06:40:23;;;;;;;;;12.50;11.25;;;;;20.74;42.10;102047.19;5057907;28;45629;-57
2022/10/07 06:42:48;;;;;;;;;13.25;10.75;;;;;20.73;41.95;102048.09;5057092;28;45459;-57
2022/10/07 06:45:14;;;;;;;;;11.00;10.00;;;;;20.74;42.05;102039.28;5056950;28;61661;-56
2022/10/07 06:47:39;;;;;;;;;15.50;11.25;;;;;20.76;41.90;102037.50;5057301;28;45351;-56
2022/10/07 06:50:05;;;;;;;;;12.50;12.25;;;;;20.73;42.06;102043.69;5057975;28;45422;-57
2022/10/07 06:52:30;;;;;;;;;14.25;10.75;;;;;20.75;42.18;102047.16;5057259;28;46455;-55
2022/10/07 06:54:57;;;;;;;;;15.33;11.00;;;;;20.75;42.12;102043.69;5056536;28;55091;-57
2022/10/07 06:57:23;;;;;;;;;11.00;10.00;;;;;20.75;41.84;102046.31;5057459;28;45351;-56
2022/10/07 06:59:48;;;;;;;;;9.25;8.00;;;;;20.74;42.04;102034.91;5056723;28;45517;-57
2022/10/07 07:02:14;;;;;;;;;10.50;10.00;;;;;20.76;42.26;102048.88;5056953;28;45292;-56
2022/10/07 07:04:39;;;;;;;;;10.75;10.50;;;;;20.77;41.66;102044.50;5056766;28;45266;-57
2022/10/07 07:07:05;;;;;;;;;13.25;8.50;;;;;20.75;42.22;102048.94;5057554;28;45344;-56
2022/10/07 07:09:31;;;;;;;;;12.00;10.25;;;;;20.76;42.05;102043.59;5057465;28;45540;-57
2022/10/07 07:11:56;;;;;;;;;8.75;8.00;;;;;20.76;42.16;102043.59;5056820;28;45440;-58
2022/10/07 07:14:22;;;;;;;;;9.25;8.75;;;;;20.77;42.15;102053.25;5057113;28;45418;-56
2022/10/07 07:16:47;;;;;;;;;11.00;10.50;;;;;20.77;42.20;102049.75;5056775;28;45410;-57
2022/10/07 07:19:14;;;;;;;;;18.25;11.75;;;;;20.77;41.78;102041.84;5039041;28;45387;-57
2022/10/07 07:21:40;;;;;;;;;12.00;10.00;;;;;20.78;42.05;102035.66;5056566;28;47072;-56
2022/10/07 07:24:06;;;;;;;;;13.25;11.00;;;;;20.78;42.03;102047.06;5057169;28;45395;-54
2022/10/07 07:26:32;;;;;;;;;10.25;10.00;;;;;20.79;42.15;102037.34;5056497;28;45752;-53
2022/10/07 07:29:03;;;;;;;;;12.00;10.50;;;;;20.81;42.11;102038.16;5056830;28;45667;-58
2022/10/07 07:31:31;;;;;;;;;11.25;10.00;;;;;20.80;41.78;102033.81;5056749;28;46399;-55
2022/10/07 07:34:00;;;;;;;;;13.25;12.50;;;;;20.81;41.80;102035.53;5056522;28;45330;-56
2022/10/07 07:36:28;;;;;;;;;12.75;11.75;;;;;20.80;42.02;102039.97;5056801;28;45423;-57
2022/10/07 07:38:59;;;;;;;;;12.00;12.00;;;;;20.81;41.74;102030.25;5056551;28;45508;-57
2022/10/07 07:41:29;;;;;;;;;6.25;6.00;;;;;20.79;42.22;102026.81;5056623;28;46440;-56
2022/10/07 07:43:57;;;;;;;;;12.00;12.00;;;;;20.80;42.00;102028.53;5056251;28;45426;-56
2022/10/07 07:46:25;;;;;;;;;14.50;12.25;;;;;20.80;42.02;102032.06;5038597;28;45190;-57
2022/10/07 07:48:52;;;;;;;;;12.25;9.75;;;;;20.81;41.76;102028.50;5038671;28;45463;-56
2022/10/07 07:51:17;;;;;;;;;12.00;11.00;;;;;20.81;41.98;102019.72;5056495;28;46156;-57
2022/10/07 07:53:43;;;;;;;;;12.75;10.25;;;;;20.80;42.25;102029.41;5056191;28;45327;-54
2022/10/07 07:56:10;;;;;;;;;16.75;12.00;;;;;20.83;41.96;102023.16;5056425;28;45466;-55
2022/10/07 07:58:36;;;;;;;;;10.00;8.50;;;;;20.83;42.25;102024.03;5055463;28;45594;-55
2022/10/07 08:01:07;;;;;;;;;10.50;9.00;;;;;20.82;42.24;102017.06;5021696;28;48661;-55
2022/10/07 08:03:37;;;;;;;;;9.00;8.75;;;;;20.85;41.85;102016.06;5056300;28;45887;-54
2022/10/07 08:06:05;;;;;;;;;13.25;10.25;;;;;20.84;42.22;102015.19;5056541;28;45343;-57
2022/10/07 08:08:30;;;;;;;;;12.00;9.75;;;;;20.87;41.84;102022.16;5056491;28;45503;-57
2022/10/07 08:10:56;;;;;;;;;13.25;9.00;;;;;20.85;42.32;102014.28;5055310;28;47243;-57
2022/10/07 08:13:23;;;;;;;;;11.00;11.00;;;;;20.88;41.93;102023.00;5055166;28;46098;-57
2022/10/07 08:15:48;;;;;;;;;13.00;10.25;;;;;20.87;41.78;102024.78;5037721;28;45559;-57
2022/10/07 08:18:14;;;;;;;;;11.75;10.50;;;;;20.87;41.88;102024.78;5056271;28;45307;-59
2022/10/07 08:20:39;;;;;;;;;13.33;10.67;;;;;20.88;42.10;102026.50;5055086;28;61806;-56
2022/10/07 08:23:05;;;;;;;;;9.50;8.25;;;;;20.87;42.29;102016.88;5056225;28;45364;-57
2022/10/07 08:25:31;;;;;;;;;13.00;9.25;;;;;20.88;42.04;102015.09;5056103;28;45480;-58
2022/10/07 08:27:57;;;;;;;;;12.00;9.75;;;;;20.89;41.92;102014.16;5055945;28;45494;-57
2022/10/07 08:30:23;;;;;;;;;12.50;10.50;;;;;20.89;42.11;102007.09;5055773;28;46223;-58
2022/10/07 08:32:48;;;;;;;;;9.00;7.75;;;;;20.89;42.29;102007.09;5037449;28;45439;-57
2022/10/07 08:45:30;;;;;;;;;15.25;13.75;;;;;20.51;40.59;101991.78;5057757;28;45286;-63
2022/10/07 08:47:58;;;;;;;;;11.50;11.50;;;;;20.44;40.93;101997.38;5040013;28;45444;-65
2022/10/07 08:50:53;;;;;;;;;13.00;9.00;;;;;20.34;41.21;101997.69;5036069;28;45567;-66
2022/10/07 08:53:28;;;;;;;;;14.50;12.75;;;;;20.27;40.82;101993.56;5026394;28;45376;-66
2022/10/07 08:56:12;;;;;;;;;13.50;12.75;;;;;20.21;41.29;101992.00;5035668;28;45869;-67
2022/10/07 08:58:46;;;;;;;;;11.25;11.25;;;;;20.17;40.81;101992.16;5036153;28;45694;-67
2022/10/07 09:01:32;;;;;;;;;11.00;9.75;;;;;20.13;41.29;101988.78;5036271;28;45375;-65
2022/10/07 09:04:09;;;;;;;;;8.00;7.00;;;;;20.12;40.85;101987.06;5035843;28;47187;-66
2022/10/07 09:06:43;;;;;;;;;9.00;8.50;;;;;20.09;41.00;101976.63;5048789;28;45396;-64
2022/10/07 09:09:19;;;;;;;;;12.25;8.00;;;;;20.10;41.31;101981.00;5054857;28;44813;-56
2022/10/07 09:11:48;;;;;;;;;11.00;8.00;;;;;20.09;41.08;101976.63;5030220;28;45691;-59
2022/10/07 09:14:36;;;;;;;;;6.00;6.00;;;;;20.10;40.86;101974.88;5055237;28;45666;-68
2022/10/07 09:17:13;;;;;;;;;6.75;6.75;;;;;20.11;40.91;101971.34;5039824;28;45211;-66
2022/10/07 09:19:45;;;;;;;;;7.00;7.00;;;;;20.08;40.84;101962.63;5038620;28;45457;-65
2022/10/07 09:22:30;;;;;;;;;8.75;6.25;;;;;20.09;40.40;101966.13;5040355;28;45301;-63
2022/10/07 09:25:17;;;;;;;;;6.25;5.50;;;;;20.10;40.90;101956.47;5049625;28;46443;-65
2022/10/07 09:27:42;;;;;;;;;7.75;7.00;;;;;20.07;40.82;101953.03;5047740;28;45267;-64
2022/10/07 09:30:13;;;;;;;;;5.00;5.00;;;;;20.09;40.45;101958.22;5025613;28;45381;-64
2022/10/07 09:32:41;;;;;;;;;5.25;5.25;;;;;20.11;40.27;101947.66;5052369;28;45265;-64
2022/10/07 09:35:12;;;;;;;;;5.75;5.50;;;;;20.12;40.56;101944.97;5058851;28;45271;-64
2022/10/07 09:37:53;;;;;;;;;5.00;5.00;;;;;20.13;40.58;101938.78;5060655;28;45272;-65
2022/10/07 09:43:28;;;;;;;;;6.00;5.00;;;;;20.15;40.47;101938.72;5059211;28;45374;-65
2022/10/07 09:45:55;;;;;;;;;6.25;4.00;;;;;20.17;40.29;101929.00;5058594;28;46979;-64
2022/10/07 09:48:26;;;;;;;;;6.75;5.25;;;;;20.17;39.86;101924.59;5058221;28;45945;-65
2022/10/07 09:51:14;;;;;;;;;5.50;5.00;;;;;20.12;40.35;101918.63;5040566;28;45414;-63
2022/10/07 09:54:00;;;;;;;;;6.25;6.00;;;;;20.12;40.03;101909.91;5058779;28;45382;-64
2022/10/07 09:56:33;;;;;;;;;5.50;3.75;;;;;20.13;39.97;101907.19;5058600;28;46146;-65
2022/10/07 09:59:46;;;;;;;;;4.00;4.00;;;;;20.09;40.00;101905.59;5058374;28;45490;-68
2022/10/07 10:02:12;;;;;;;;;6.00;4.25;;;;;20.09;39.78;101900.31;5041196;28;45292;-66
2022/10/07 10:04:45;;;;;;;;;6.33;4.67;;;;;20.09;40.34;101905.59;5040540;28;45241;-65
2022/10/07 10:07:23;;;;;;;;;6.50;5.50;;;;;20.07;40.00;101897.75;5058565;28;46652;-64
2022/10/07 10:09:50;;;;;;;;;4.00;4.00;;;;;20.08;39.70;101899.47;5058533;28;45686;-64
2022/10/07 10:12:17;;;;;;;;;4.00;4.00;;;;;20.08;39.52;101899.47;5058610;28;45294;-64
2022/10/07 10:14:45;;;;;;;;;3.25;3.25;;;;;20.07;39.92;101897.75;5058356;28;45493;-65
2022/10/07 10:17:25;;;;;;;;;5.00;3.00;;;;;20.08;39.53;101891.56;5060231;28;46699;-65
2022/10/07 10:19:51;;;;;;;;;5.75;4.00;;;;;20.09;39.93;101887.16;5066802;28;45849;-65
2022/10/07 10:22:25;;;;;;;;;4.75;3.25;;;;;20.10;39.60;101873.09;5076249;28;45739;-63
2022/10/07 10:27:59;;;;;;;;;3.50;3.50;;;;;20.11;40.13;101872.19;5059455;28;45682;-65
2022/10/07 10:30:26;;;;;;;;;4.75;4.75;;;;;20.09;39.83;101876.63;5059394;28;45834;-63
2022/10/07 10:32:59;;;;;;;;;3.00;3.00;;;;;20.10;39.25;101874.88;5074996;28;44808;-67
2022/10/07 10:35:36;;;;;;;;;8.25;4.00;;;;;20.06;39.37;101869.72;5059278;28;45481;-63
2022/10/07 10:38:01;;;;;;;;;4.00;4.00;;;;;20.07;39.29;101857.41;5058271;28;46422;-65
2022/10/07 10:40:40;;;;;;;;;3.50;3.50;;;;;20.08;39.54;101867.03;5058165;28;45360;-65
2022/10/07 10:43:23;;;;;;;;;4.00;3.00;;;;;20.05;39.71;101862.72;5058711;28;45795;-65
2022/10/07 10:45:57;;;;;;;;;8.00;5.50;;;;;20.05;39.98;101857.47;5058352;28;45225;-65
2022/10/07 10:48:41;;;;;;;;;3.75;3.00;;;;;20.07;39.93;101853.00;5058606;28;45488;-65
2022/10/07 10:51:26;;;;;;;;;4.00;3.75;;;;;20.11;39.91;101858.16;5059879;28;45830;-66
2022/10/07 10:54:30;;;;;;;;;5.75;4.75;;;;;20.12;39.52;101852.84;5057725;28;45165;-66
2022/10/07 10:57:08;;;;;;;;;5.00;3.00;;;;;20.10;39.04;101848.56;5058237;28;45399;-66
2022/10/07 10:59:48;;;;;;;;;3.75;3.50;;;;;20.08;39.20;101841.56;5065629;28;45508;-65
2022/10/07 11:02:42;;;;;;;;;3.50;2.75;;;;;20.06;39.14;101842.56;5064698;28;45807;-66
2022/10/07 11:05:35;;;;;;;;;4.25;3.00;;;;;20.05;39.20;101836.41;5058525;28;45401;-65
2022/10/07 11:08:17;;;;;;;;;3.00;3.00;;;;;20.05;39.58;101828.53;5055192;28;45850;-66
2022/10/07 11:10:51;;;;;;;;;3.25;2.75;;;;;20.04;38.91;101824.16;5056954;28;45765;-66
2022/10/07 11:13:42;;;;;;;;;4.75;3.25;;;;;20.07;39.15;101831.09;5057844;28;45234;-65
2022/10/07 11:16:35;;;;;;;;;8.00;3.00;;;;;20.06;39.46;101826.78;5040679;28;45478;-66
2022/10/07 11:19:05;;;;;;;;;5.50;3.25;;;;;20.05;39.39;101812.72;5058128;28;45326;-67
2022/10/07 11:21:39;;;;;;;;;3.25;2.50;;;;;20.07;39.64;101810.91;5057952;28;45393;-66
2022/10/07 11:24:21;;;;;;;;;3.00;3.00;;;;;20.10;39.02;101809.09;5058267;28;45449;-64
2022/10/07 11:26:55;;;;;;;;;3.75;2.50;;;;;20.11;38.91;101797.63;5061438;28;45441;-66
2022/10/07 11:29:50;;;;;;;;;6.00;4.00;;;;;20.11;39.17;101802.91;5069375;28;45514;-62
2022/10/07 11:32:34;;;;;;;;;3.00;2.00;;;;;20.11;38.95;101792.38;5031620;28;45576;-66
2022/10/07 11:35:32;;;;;;;;;2.00;2.00;;;;;20.15;39.27;101791.31;5064837;28;45220;-60
2022/10/07 11:38:15;;;;;;;;;1.50;0.00;;;;;20.17;39.00;101790.38;5069885;28;45859;-61
2022/10/07 11:40:55;;;;;;;;;3.25;1.00;;;;;20.18;38.69;101783.31;5070339;28;44726;-61
2022/10/07 11:43:21;;;;;;;;;5.50;2.00;;;;;20.20;38.98;101784.13;5073810;28;46095;-62
2022/10/07 11:45:54;;;;;;;;;4.00;2.67;;;;;20.21;39.03;101784.06;5079786;28;46978;-63
2022/10/07 11:48:43;;;;;;;;;2.00;2.00;;;;;20.22;38.90;101779.66;5062064;28;45395;-62
2022/10/07 11:51:36;;;;;;;;;3.00;2.25;;;;;20.23;38.89;101776.06;5067018;28;45448;-62
2022/10/07 11:54:05;;;;;;;;;2.25;2.25;;;;;20.24;38.79;101762.88;5069689;28;45831;-62
2022/10/07 11:56:48;;;;;;;;;5.00;3.00;;;;;20.28;38.38;101765.41;5070991;28;45258;-63
2022/10/07 11:59:44;;;;;;;;;4.00;3.00;;;;;20.29;38.30;101751.28;5063874;28;45342;-64